createdAt,value
2019-03-27T00:00:16.379Z,976.92
2019-03-27T00:01:16.375Z,976.99
2019-03-27T00:02:16.368Z,976.93
2019-03-27T00:03:16.389Z,976.93
2019-03-27T00:04:16.327Z,976.97
2019-03-27T00:05:16.317Z,976.94
2019-03-27T00:06:16.322Z,976.93
2019-03-27T00:07:16.308Z,976.96
2019-03-27T00:08:16.313Z,976.91
2019-03-27T00:09:16.314Z,976.91
2019-03-27T00:10:16.257Z,976.97
2019-03-27T00:11:16.492Z,976.96
2019-03-27T00:12:16.254Z,976.95
2019-03-27T00:13:17.053Z,976.97
2019-03-27T00:14:16.237Z,977.00
2019-03-27T00:15:16.218Z,977.01
2019-03-27T00:16:16.191Z,976.99
2019-03-27T00:17:16.184Z,976.95
2019-03-27T00:18:16.186Z,977.02
2019-03-27T00:19:16.267Z,976.97
2019-03-27T00:20:16.172Z,976.96
2019-03-27T00:21:16.143Z,976.94
2019-03-27T00:22:16.123Z,976.92
2019-03-27T00:23:16.122Z,976.92
2019-03-27T00:24:16.126Z,976.95
2019-03-27T00:25:16.117Z,976.92
2019-03-27T00:26:16.081Z,976.89
2019-03-27T00:27:16.081Z,976.96
2019-03-27T00:28:16.063Z,976.86
2019-03-27T00:29:16.050Z,976.83
2019-03-27T00:30:16.061Z,976.85
2019-03-27T00:31:16.046Z,976.87
2019-03-27T00:32:16.023Z,976.85
2019-03-27T00:33:16.009Z,976.84
2019-03-27T00:34:15.995Z,976.81
2019-03-27T00:35:16.019Z,976.79
2019-03-27T00:36:15.982Z,976.81
2019-03-27T00:37:15.986Z,976.83
2019-03-27T00:38:15.952Z,976.81
2019-03-27T00:39:15.945Z,976.84
2019-03-27T00:40:15.929Z,976.83
2019-03-27T00:41:15.934Z,976.79
2019-03-27T00:42:15.921Z,976.77
2019-03-27T00:43:16.002Z,976.81
2019-03-27T00:44:15.883Z,976.78
2019-03-27T00:45:25.846Z,976.78
2019-03-27T00:46:16.894Z,976.76
2019-03-27T00:47:15.872Z,976.76
2019-03-27T00:48:15.860Z,976.70
2019-03-27T00:49:15.852Z,976.76
2019-03-27T00:50:15.830Z,976.73
2019-03-27T00:51:15.817Z,976.72
2019-03-27T00:52:15.812Z,976.73
2019-03-27T00:53:15.794Z,976.69
2019-03-27T00:54:15.788Z,976.71
2019-03-27T00:55:15.760Z,976.73
2019-03-27T00:56:15.756Z,976.70
2019-03-27T00:57:15.764Z,976.73
2019-03-27T00:58:15.743Z,976.64
2019-03-27T00:59:15.749Z,976.71
2019-03-27T01:00:15.723Z,976.67
2019-03-27T01:01:15.695Z,976.69
2019-03-27T01:02:15.688Z,976.74
2019-03-27T01:03:15.692Z,976.69
2019-03-27T01:04:15.679Z,976.66
2019-03-27T01:05:15.665Z,976.67
2019-03-27T01:06:15.654Z,976.64
2019-03-27T01:07:15.626Z,976.68
2019-03-27T01:08:15.632Z,976.65
2019-03-27T01:09:15.606Z,976.70
2019-03-27T01:10:15.621Z,976.64
2019-03-27T01:11:15.595Z,976.65
2019-03-27T01:12:15.573Z,976.64
2019-03-27T01:13:15.567Z,976.65
2019-03-27T01:14:15.556Z,976.67
2019-03-27T01:15:15.541Z,976.61
2019-03-27T01:16:15.554Z,976.62
2019-03-27T01:17:15.540Z,976.68
2019-03-27T01:18:15.506Z,976.63
2019-03-27T01:19:15.580Z,976.63
2019-03-27T01:20:15.497Z,976.60
2019-03-27T01:21:15.479Z,976.61
2019-03-27T01:22:15.492Z,976.60
2019-03-27T01:23:15.473Z,976.62
2019-03-27T01:24:15.475Z,976.62
2019-03-27T01:25:15.437Z,976.61
2019-03-27T01:26:15.418Z,976.55
2019-03-27T01:27:15.411Z,976.53
2019-03-27T01:28:15.414Z,976.54
2019-03-27T01:29:15.400Z,976.60
2019-03-27T01:30:15.410Z,976.56
2019-03-27T01:31:15.412Z,976.58
2019-03-27T01:32:15.353Z,976.58
2019-03-27T01:33:15.349Z,976.60
2019-03-27T01:34:15.361Z,976.59
2019-03-27T01:35:15.345Z,976.62
2019-03-27T01:36:15.307Z,976.57
2019-03-27T01:37:15.306Z,976.55
2019-03-27T01:38:15.284Z,976.56
2019-03-27T01:39:15.285Z,976.60
2019-03-27T01:40:15.322Z,976.59
2019-03-27T01:41:15.274Z,976.59
2019-03-27T01:42:15.245Z,976.60
2019-03-27T01:43:15.260Z,976.63
2019-03-27T01:44:15.219Z,976.64
2019-03-27T01:45:15.220Z,976.63
2019-03-27T01:46:15.230Z,976.68
2019-03-27T01:47:15.202Z,976.68
2019-03-27T01:48:15.175Z,976.67
2019-03-27T01:49:15.166Z,976.68
2019-03-27T01:50:15.151Z,976.68
2019-03-27T01:51:15.155Z,976.70
2019-03-27T01:52:15.191Z,976.70
2019-03-27T01:53:15.117Z,976.64
2019-03-27T01:54:15.109Z,976.61
2019-03-27T01:55:16.086Z,976.58
2019-03-27T01:56:15.118Z,976.55
2019-03-27T01:57:15.114Z,976.54
2019-03-27T01:58:15.081Z,976.54
2019-03-27T01:59:15.054Z,976.53
2019-03-27T02:00:15.058Z,976.53
2019-03-27T02:01:15.056Z,976.62
2019-03-27T02:02:15.056Z,976.57
2019-03-27T02:03:15.014Z,976.58
2019-03-27T02:04:15.034Z,976.52
2019-03-27T02:05:14.986Z,976.54
2019-03-27T02:06:14.977Z,976.61
2019-03-27T02:07:14.990Z,976.62
2019-03-27T02:08:14.986Z,976.58
2019-03-27T02:09:14.964Z,976.58
2019-03-27T02:10:14.941Z,976.61
2019-03-27T02:11:14.921Z,976.61
2019-03-27T02:12:14.907Z,976.59
2019-03-27T02:13:14.929Z,976.64
2019-03-27T02:14:14.889Z,976.63
2019-03-27T02:15:14.919Z,976.64
2019-03-27T02:16:14.880Z,976.60
2019-03-27T02:17:14.857Z,976.65
2019-03-27T02:18:14.858Z,976.64
2019-03-27T02:19:14.837Z,976.60
2019-03-27T02:20:14.835Z,976.68
2019-03-27T02:21:14.824Z,976.64
2019-03-27T02:22:14.818Z,976.61
2019-03-27T02:23:14.795Z,976.66
2019-03-27T02:24:14.783Z,976.68
2019-03-27T02:25:14.766Z,976.64
2019-03-27T02:26:14.770Z,976.70
2019-03-27T02:27:14.777Z,976.68
2019-03-27T02:28:14.759Z,976.73
2019-03-27T02:29:14.737Z,976.67
2019-03-27T02:30:14.713Z,976.68
2019-03-27T02:31:14.703Z,976.68
2019-03-27T02:32:14.705Z,976.69
2019-03-27T02:33:14.711Z,976.73
2019-03-27T02:34:14.691Z,976.72
2019-03-27T02:35:14.670Z,976.69
2019-03-27T02:36:14.645Z,976.67
2019-03-27T02:37:14.633Z,976.66
2019-03-27T02:38:14.637Z,976.66
2019-03-27T02:39:14.629Z,976.65
2019-03-27T02:40:14.645Z,976.60
2019-03-27T02:41:14.604Z,976.65
2019-03-27T02:42:14.582Z,976.62
2019-03-27T02:43:14.570Z,976.63
2019-03-27T02:44:14.572Z,976.62
2019-03-27T02:45:14.554Z,976.61
2019-03-27T02:46:24.399Z,976.59
2019-03-27T02:47:14.548Z,976.59
2019-03-27T02:48:14.523Z,976.65
2019-03-27T02:49:14.507Z,976.60
2019-03-27T02:50:14.499Z,976.63
2019-03-27T02:51:14.616Z,976.61
2019-03-27T02:52:14.467Z,976.69
2019-03-27T02:53:14.458Z,976.73
2019-03-27T02:54:14.452Z,976.69
2019-03-27T02:55:14.437Z,976.67
2019-03-27T02:56:14.439Z,976.68
2019-03-27T02:57:14.427Z,976.68
2019-03-27T02:58:14.407Z,976.68
2019-03-27T02:59:14.403Z,976.71
2019-03-27T03:00:14.379Z,976.66
2019-03-27T03:01:14.373Z,976.72
2019-03-27T03:02:14.395Z,976.65
2019-03-27T03:03:14.379Z,976.70
2019-03-27T03:04:14.339Z,976.66
2019-03-27T03:05:14.339Z,976.68
2019-03-27T03:06:14.322Z,976.72
2019-03-27T03:07:14.310Z,976.74
2019-03-27T03:08:14.317Z,976.72
2019-03-27T03:09:14.361Z,976.71
2019-03-27T03:10:14.275Z,976.70
2019-03-27T03:11:14.278Z,976.70
2019-03-27T03:12:14.320Z,976.62
2019-03-27T03:13:14.270Z,976.68
2019-03-27T03:14:14.246Z,976.61
2019-03-27T03:15:14.233Z,976.64
2019-03-27T03:16:14.204Z,976.61
2019-03-27T03:17:14.208Z,976.56
2019-03-27T03:18:14.200Z,976.60
2019-03-27T03:19:14.236Z,976.56
2019-03-27T03:20:14.180Z,976.63
2019-03-27T03:21:14.171Z,976.58
2019-03-27T03:22:14.144Z,976.65
2019-03-27T03:23:14.133Z,976.62
2019-03-27T03:24:14.122Z,976.66
2019-03-27T03:25:14.123Z,976.64
2019-03-27T03:26:14.113Z,976.63
2019-03-27T03:27:14.107Z,976.62
2019-03-27T03:28:14.110Z,976.66
2019-03-27T03:29:14.082Z,976.65
2019-03-27T03:30:14.051Z,976.67
2019-03-27T03:31:14.056Z,976.71
2019-03-27T03:32:14.044Z,976.65
2019-03-27T03:33:14.042Z,976.68
2019-03-27T03:34:14.162Z,976.73
2019-03-27T03:35:14.015Z,976.67
2019-03-27T03:36:13.990Z,976.70
2019-03-27T03:37:14.007Z,976.75
2019-03-27T03:38:13.990Z,976.71
2019-03-27T03:39:13.974Z,976.72
2019-03-27T03:40:13.939Z,976.74
2019-03-27T03:41:13.930Z,976.68
2019-03-27T03:42:13.918Z,976.72
2019-03-27T03:43:13.933Z,976.71
2019-03-27T03:44:13.927Z,976.72
2019-03-27T03:45:13.886Z,976.74
2019-03-27T03:46:13.872Z,976.69
2019-03-27T03:47:13.866Z,976.81
2019-03-27T03:48:13.854Z,976.75
2019-03-27T03:49:13.862Z,976.80
2019-03-27T03:50:13.864Z,976.74
2019-03-27T03:51:13.818Z,976.80
2019-03-27T03:52:13.812Z,976.76
2019-03-27T03:53:13.830Z,976.74
2019-03-27T03:54:13.802Z,976.74
2019-03-27T03:55:13.816Z,976.80
2019-03-27T03:56:13.794Z,976.78
2019-03-27T03:57:13.761Z,976.80
2019-03-27T03:58:13.746Z,976.74
2019-03-27T03:59:13.737Z,976.75
2019-03-27T04:00:13.746Z,976.75
2019-03-27T04:01:13.726Z,976.78
2019-03-27T04:02:13.720Z,976.76
2019-03-27T04:03:13.740Z,976.80
2019-03-27T04:04:13.676Z,976.83
2019-03-27T04:05:13.683Z,976.79
2019-03-27T04:06:13.682Z,976.80
2019-03-27T04:07:13.662Z,976.77
2019-03-27T04:08:13.670Z,976.74
2019-03-27T04:09:13.662Z,976.85
2019-03-27T04:10:13.609Z,976.79
2019-03-27T04:11:13.597Z,976.83
2019-03-27T04:12:13.603Z,976.86
2019-03-27T04:13:13.610Z,976.82
2019-03-27T04:14:13.590Z,976.82
2019-03-27T04:15:13.560Z,976.84
2019-03-27T04:16:13.541Z,976.85
2019-03-27T04:17:17.323Z,976.81
2019-03-27T04:18:13.530Z,976.87
2019-03-27T04:19:13.524Z,976.83
2019-03-27T04:20:13.501Z,976.86
2019-03-27T04:21:13.488Z,976.92
2019-03-27T04:22:13.494Z,976.88
2019-03-27T04:23:13.492Z,976.89
2019-03-27T04:24:13.470Z,976.90
2019-03-27T04:25:13.466Z,976.89
2019-03-27T04:26:13.449Z,976.90
2019-03-27T04:27:13.424Z,976.89
2019-03-27T04:28:13.440Z,976.89
2019-03-27T04:29:13.412Z,976.85
2019-03-27T04:30:13.405Z,976.84
2019-03-27T04:31:13.398Z,976.85
2019-03-27T04:32:13.387Z,976.90
2019-03-27T04:33:13.398Z,976.88
2019-03-27T04:34:13.365Z,976.88
2019-03-27T04:35:13.348Z,976.88
2019-03-27T04:36:13.342Z,976.85
2019-03-27T04:37:13.310Z,976.88
2019-03-27T04:38:13.298Z,976.89
2019-03-27T04:39:13.316Z,976.89
2019-03-27T04:40:13.286Z,976.89
2019-03-27T04:41:13.286Z,976.88
2019-03-27T04:42:13.267Z,976.91
2019-03-27T04:43:13.308Z,976.95
2019-03-27T04:44:13.233Z,976.90
2019-03-27T04:45:13.231Z,976.90
2019-03-27T04:46:13.221Z,976.92
2019-03-27T04:47:13.222Z,976.88
2019-03-27T04:48:13.198Z,976.89
2019-03-27T04:49:13.179Z,976.88
2019-03-27T04:50:13.186Z,976.91
2019-03-27T04:51:13.157Z,976.86
2019-03-27T04:52:13.146Z,976.90
2019-03-27T04:53:13.148Z,976.86
2019-03-27T04:54:13.133Z,976.91
2019-03-27T04:55:13.115Z,976.89
2019-03-27T04:56:13.112Z,976.86
2019-03-27T04:57:13.092Z,976.91
2019-03-27T04:58:13.085Z,976.93
2019-03-27T04:59:13.088Z,976.97
2019-03-27T05:00:13.090Z,976.97
2019-03-27T05:01:13.096Z,976.99
2019-03-27T05:02:13.050Z,977.01
2019-03-27T05:03:13.028Z,976.96
2019-03-27T05:04:13.038Z,977.01
2019-03-27T05:05:13.022Z,977.01
2019-03-27T05:06:13.026Z,977.07
2019-03-27T05:07:13.805Z,977.07
2019-03-27T05:08:12.968Z,977.04
2019-03-27T05:09:12.965Z,977.06
2019-03-27T05:10:12.962Z,977.07
2019-03-27T05:11:13.020Z,977.07
2019-03-27T05:12:12.967Z,977.10
2019-03-27T05:13:12.922Z,977.12
2019-03-27T05:14:12.901Z,977.13
2019-03-27T05:15:12.896Z,977.16
2019-03-27T05:16:12.912Z,977.18
2019-03-27T05:17:12.892Z,977.13
2019-03-27T05:18:12.864Z,977.16
2019-03-27T05:19:12.853Z,977.14
2019-03-27T05:20:12.837Z,977.22
2019-03-27T05:21:12.824Z,977.15
2019-03-27T05:22:12.842Z,977.18
2019-03-27T05:23:12.864Z,977.24
2019-03-27T05:24:12.795Z,977.17
2019-03-27T05:25:12.791Z,977.17
2019-03-27T05:26:12.777Z,977.16
2019-03-27T05:27:12.762Z,977.22
2019-03-27T05:28:12.782Z,977.19
2019-03-27T05:29:12.765Z,977.19
2019-03-27T05:30:12.727Z,977.18
2019-03-27T05:31:12.717Z,977.13
2019-03-27T05:32:12.718Z,977.15
2019-03-27T05:33:12.733Z,977.22
2019-03-27T05:34:12.697Z,977.24
2019-03-27T05:35:12.694Z,977.19
2019-03-27T05:36:12.659Z,977.22
2019-03-27T05:37:12.651Z,977.17
2019-03-27T05:38:12.637Z,977.21
2019-03-27T05:39:14.697Z,977.23
2019-03-27T05:40:12.633Z,977.22
2019-03-27T05:41:12.624Z,977.25
2019-03-27T05:42:12.597Z,977.22
2019-03-27T05:43:12.583Z,977.25
2019-03-27T05:44:12.572Z,977.25
2019-03-27T05:45:12.600Z,977.29
2019-03-27T05:46:12.571Z,977.25
2019-03-27T05:47:12.617Z,977.30
2019-03-27T05:48:12.533Z,977.29
2019-03-27T05:49:12.520Z,977.29
2019-03-27T05:50:12.530Z,977.31
2019-03-27T05:51:12.535Z,977.34
2019-03-27T05:52:12.495Z,977.31
2019-03-27T05:53:12.500Z,977.40
2019-03-27T05:54:12.464Z,977.37
2019-03-27T05:55:12.449Z,977.32
2019-03-27T05:56:12.459Z,977.36
2019-03-27T05:57:12.482Z,977.38
2019-03-27T05:58:12.439Z,977.36
2019-03-27T05:59:12.407Z,977.40
2019-03-27T06:00:12.395Z,977.39
2019-03-27T06:01:12.402Z,977.44
2019-03-27T06:02:12.377Z,977.47
2019-03-27T06:03:12.392Z,977.46
2019-03-27T06:04:12.376Z,977.46
2019-03-27T06:05:12.347Z,977.49
2019-03-27T06:06:12.336Z,977.50
2019-03-27T06:07:12.322Z,977.50
2019-03-27T06:08:12.324Z,977.48
2019-03-27T06:09:12.310Z,977.53
2019-03-27T06:10:12.306Z,977.51
2019-03-27T06:11:12.283Z,977.52
2019-03-27T06:12:12.282Z,977.49
2019-03-27T06:13:12.251Z,977.55
2019-03-27T06:14:12.251Z,977.54
2019-03-27T06:15:12.270Z,977.56
2019-03-27T06:16:12.249Z,977.61
2019-03-27T06:17:12.260Z,977.61
2019-03-27T06:18:13.239Z,977.61
2019-03-27T06:19:12.184Z,977.63
2019-03-27T06:20:12.284Z,977.63
2019-03-27T06:21:13.108Z,977.63
2019-03-27T06:22:14.983Z,977.62
2019-03-27T06:23:12.182Z,977.66
2019-03-27T06:24:12.135Z,977.64
2019-03-27T06:25:12.123Z,977.65
2019-03-27T06:26:12.124Z,977.73
2019-03-27T06:27:12.128Z,977.67
2019-03-27T06:28:12.115Z,977.68
2019-03-27T06:29:12.124Z,977.69
2019-03-27T06:30:12.066Z,977.63
2019-03-27T06:31:12.059Z,977.62
2019-03-27T06:32:12.046Z,977.58
2019-03-27T06:33:12.084Z,977.59
2019-03-27T06:34:12.065Z,977.55
2019-03-27T06:35:12.009Z,977.59
2019-03-27T06:36:12.615Z,977.54
2019-03-27T06:37:11.993Z,977.58
2019-03-27T06:38:11.997Z,977.58
2019-03-27T06:39:12.140Z,977.57
2019-03-27T06:40:11.957Z,977.56
2019-03-27T06:41:11.939Z,977.59
2019-03-27T06:42:11.941Z,977.59
2019-03-27T06:43:11.939Z,977.58
2019-03-27T06:44:11.921Z,977.58
2019-03-27T06:45:12.125Z,977.57
2019-03-27T06:46:11.887Z,977.58
2019-03-27T06:47:11.874Z,977.58
2019-03-27T06:48:11.863Z,977.65
2019-03-27T06:49:11.869Z,977.66
2019-03-27T06:50:11.876Z,977.68
2019-03-27T06:51:11.855Z,977.65
2019-03-27T06:52:11.820Z,977.68
2019-03-27T06:53:11.808Z,977.68
2019-03-27T06:54:11.797Z,977.70
2019-03-27T06:55:11.806Z,977.69
2019-03-27T06:56:11.799Z,977.69
2019-03-27T06:57:11.763Z,977.72
2019-03-27T06:58:11.754Z,977.73
2019-03-27T06:59:11.741Z,977.74
2019-03-27T07:00:11.740Z,977.69
2019-03-27T07:01:11.748Z,977.77
2019-03-27T07:02:11.720Z,977.81
2019-03-27T07:03:11.704Z,977.78
2019-03-27T07:04:11.692Z,977.79
2019-03-27T07:05:11.673Z,977.78
2019-03-27T07:06:11.667Z,977.76
2019-03-27T07:07:11.693Z,977.78
2019-03-27T07:08:11.656Z,977.75
2019-03-27T07:09:11.665Z,977.79
2019-03-27T07:10:11.634Z,977.82
2019-03-27T07:11:11.619Z,977.78
2019-03-27T07:12:20.926Z,977.78
2019-03-27T07:13:11.595Z,977.81
2019-03-27T07:14:11.606Z,977.80
2019-03-27T07:15:11.572Z,977.80
2019-03-27T07:16:11.554Z,977.78
2019-03-27T07:17:11.541Z,977.81
2019-03-27T07:18:11.544Z,977.84
2019-03-27T07:19:11.542Z,977.81
2019-03-27T07:20:11.540Z,977.80
2019-03-27T07:21:11.497Z,977.81
2019-03-27T07:22:11.487Z,977.83
2019-03-27T07:23:11.477Z,977.83
2019-03-27T07:24:11.477Z,977.84
2019-03-27T07:25:11.496Z,977.84
2019-03-27T07:26:11.508Z,977.84
2019-03-27T07:27:11.433Z,977.84
2019-03-27T07:28:11.420Z,977.87
2019-03-27T07:29:11.408Z,977.87
2019-03-27T07:30:11.410Z,977.84
2019-03-27T07:31:11.398Z,977.91
2019-03-27T07:32:11.376Z,977.92
2019-03-27T07:33:11.375Z,977.99
2019-03-27T07:34:11.358Z,977.92
2019-03-27T07:35:11.366Z,977.98
2019-03-27T07:36:11.350Z,977.97
2019-03-27T07:37:11.328Z,977.95
2019-03-27T07:38:11.307Z,977.96
2019-03-27T07:39:11.629Z,978.02
2019-03-27T07:40:11.289Z,978.03
2019-03-27T07:41:11.278Z,978.00
2019-03-27T07:42:11.284Z,978.05
2019-03-27T07:43:11.270Z,978.03
2019-03-27T07:44:11.242Z,978.02
2019-03-27T07:45:11.308Z,978.03
2019-03-27T07:46:11.234Z,978.06
2019-03-27T07:47:11.249Z,978.06
2019-03-27T07:48:11.211Z,978.08
2019-03-27T07:49:11.204Z,978.05
2019-03-27T07:50:11.180Z,978.04
2019-03-27T07:51:11.171Z,978.03
2019-03-27T07:52:11.153Z,978.05
2019-03-27T07:53:11.158Z,978.04
2019-03-27T07:54:11.147Z,978.00
2019-03-27T07:55:19.266Z,978.00
2019-03-27T07:56:12.127Z,978.01
2019-03-27T07:57:11.096Z,977.98
2019-03-27T07:58:11.095Z,978.02
2019-03-27T07:59:11.085Z,978.10
2019-03-27T08:00:11.077Z,978.07
2019-03-27T08:01:11.084Z,978.08
2019-03-27T08:02:11.052Z,978.09
2019-03-27T08:03:11.036Z,978.09
2019-03-27T08:04:14.188Z,978.07
2019-03-27T08:05:11.031Z,978.05
2019-03-27T08:06:11.031Z,978.03
2019-03-27T08:07:11.031Z,978.00
2019-03-27T08:08:10.975Z,977.95
2019-03-27T08:09:10.967Z,978.02
2019-03-27T08:10:10.959Z,977.97
2019-03-27T08:11:10.975Z,977.97
2019-03-27T08:12:10.953Z,977.96
2019-03-27T08:13:10.945Z,977.93
2019-03-27T08:14:10.912Z,978.00
2019-03-27T08:15:10.899Z,977.99
2019-03-27T08:16:10.895Z,977.99
2019-03-27T08:17:10.903Z,978.03
2019-03-27T08:18:10.907Z,978.02
2019-03-27T08:19:10.853Z,978.05
2019-03-27T08:20:10.846Z,978.05
2019-03-27T08:21:10.831Z,978.07
2019-03-27T08:22:10.827Z,978.03
2019-03-27T08:23:10.828Z,978.05
2019-03-27T08:24:10.821Z,978.05
2019-03-27T08:25:10.788Z,978.10
2019-03-27T08:26:10.774Z,978.09
2019-03-27T08:27:10.765Z,978.13
2019-03-27T08:28:10.763Z,978.09
2019-03-27T08:29:10.772Z,978.14
2019-03-27T08:30:10.755Z,978.06
2019-03-27T08:31:10.727Z,978.11
2019-03-27T08:32:10.714Z,978.12
2019-03-27T08:33:10.697Z,978.11
2019-03-27T08:34:11.133Z,978.10
2019-03-27T08:35:10.693Z,978.14
2019-03-27T08:36:10.683Z,978.14
2019-03-27T08:37:10.653Z,978.14
2019-03-27T08:38:10.641Z,978.12
2019-03-27T08:39:10.633Z,978.13
2019-03-27T08:40:10.649Z,978.20
2019-03-27T08:41:10.631Z,978.16
2019-03-27T08:42:10.619Z,978.15
2019-03-27T08:43:20.644Z,978.14
2019-03-27T08:44:10.580Z,978.19
2019-03-27T08:45:10.577Z,978.13
2019-03-27T08:46:10.572Z,978.20
2019-03-27T08:47:10.560Z,978.16
2019-03-27T08:48:10.533Z,978.16
2019-03-27T08:49:21.153Z,978.19
2019-03-27T08:50:10.524Z,978.20
2019-03-27T08:51:10.520Z,978.17
2019-03-27T08:52:10.512Z,978.15
2019-03-27T08:53:10.497Z,978.18
2019-03-27T08:54:10.472Z,978.20
2019-03-27T08:55:13.637Z,978.19
2019-03-27T08:56:10.441Z,978.25
2019-03-27T08:57:10.460Z,978.23
2019-03-27T08:58:10.431Z,978.24
2019-03-27T08:59:10.431Z,978.26
2019-03-27T09:00:10.446Z,978.27
2019-03-27T09:01:10.401Z,978.24
2019-03-27T09:02:10.381Z,978.28
2019-03-27T09:03:10.374Z,978.23
2019-03-27T09:04:10.363Z,978.30
2019-03-27T09:05:10.377Z,978.20
2019-03-27T09:06:10.330Z,978.19
2019-03-27T09:07:10.322Z,978.23
2019-03-27T09:08:10.309Z,978.19
2019-03-27T09:09:10.306Z,978.22
2019-03-27T09:10:10.324Z,978.23
2019-03-27T09:11:10.303Z,978.26
2019-03-27T09:12:10.265Z,978.24
2019-03-27T09:13:10.252Z,978.22
2019-03-27T09:14:10.248Z,978.23
2019-03-27T09:15:10.245Z,978.26
2019-03-27T09:16:10.256Z,978.28
2019-03-27T09:17:10.235Z,978.28
2019-03-27T09:18:11.117Z,978.32
2019-03-27T09:19:10.203Z,978.30
2019-03-27T09:20:10.199Z,978.35
2019-03-27T09:21:10.179Z,978.36
2019-03-27T09:22:10.164Z,978.35
2019-03-27T09:23:10.170Z,978.39
2019-03-27T09:24:10.143Z,978.36
2019-03-27T09:25:10.155Z,978.36
2019-03-27T09:26:10.109Z,978.41
2019-03-27T09:27:10.136Z,978.36
2019-03-27T09:28:10.095Z,978.35
2019-03-27T09:29:10.081Z,978.37
2019-03-27T09:30:10.067Z,978.35
2019-03-27T09:31:10.092Z,978.36
2019-03-27T09:32:10.047Z,978.38
2019-03-27T09:33:10.090Z,978.40
2019-03-27T09:34:10.132Z,978.35
2019-03-27T09:35:10.010Z,978.35
2019-03-27T09:36:10.077Z,978.45
2019-03-27T09:37:10.058Z,978.41
2019-03-27T09:38:10.032Z,978.44
2019-03-27T09:39:09.982Z,978.44
2019-03-27T09:40:09.967Z,978.49
2019-03-27T09:41:09.945Z,978.52
2019-03-27T09:42:09.956Z,978.46
2019-03-27T09:43:09.923Z,978.44
2019-03-27T09:44:09.914Z,978.34
2019-03-27T09:45:09.909Z,978.36
2019-03-27T09:46:09.909Z,978.39
2019-03-27T09:47:09.930Z,978.36
2019-03-27T09:48:09.863Z,978.38
2019-03-27T09:49:09.860Z,978.40
2019-03-27T09:50:09.865Z,978.40
2019-03-27T09:51:09.856Z,978.43
2019-03-27T09:52:09.840Z,978.40
2019-03-27T09:53:09.821Z,978.46
2019-03-27T09:54:09.804Z,978.46
2019-03-27T09:55:09.797Z,978.42
2019-03-27T09:56:19.033Z,978.41
2019-03-27T09:57:09.797Z,978.46
2019-03-27T09:58:09.753Z,978.44
2019-03-27T09:59:09.747Z,978.44
2019-03-27T10:00:09.730Z,978.44
2019-03-27T10:01:09.721Z,978.43
2019-03-27T10:02:09.734Z,978.43
2019-03-27T10:03:09.713Z,978.41
2019-03-27T10:04:09.688Z,978.42
2019-03-27T10:05:09.725Z,978.40
2019-03-27T10:06:09.670Z,978.36
2019-03-27T10:07:09.655Z,978.37
2019-03-27T10:08:09.664Z,978.38
2019-03-27T10:09:09.646Z,978.33
2019-03-27T10:10:09.647Z,978.33
2019-03-27T10:11:09.620Z,978.29
2019-03-27T10:12:09.601Z,978.34
2019-03-27T10:13:09.598Z,978.38
2019-03-27T10:14:09.586Z,978.38
2019-03-27T10:15:09.589Z,978.39
2019-03-27T10:16:09.587Z,978.43
2019-03-27T10:17:09.542Z,978.39
2019-03-27T10:18:09.531Z,978.35
2019-03-27T10:19:09.533Z,978.37
2019-03-27T10:20:09.521Z,978.38
2019-03-27T10:21:09.526Z,978.43
2019-03-27T10:22:09.498Z,978.44
2019-03-27T10:23:09.478Z,978.43
2019-03-27T10:24:09.471Z,978.40
2019-03-27T10:25:09.492Z,978.44
2019-03-27T10:26:09.453Z,978.44
2019-03-27T10:27:09.452Z,978.54
2019-03-27T10:28:09.421Z,978.45
2019-03-27T10:29:09.425Z,978.47
2019-03-27T10:30:09.400Z,978.43
2019-03-27T10:31:09.418Z,978.45
2019-03-27T10:32:09.399Z,978.46
2019-03-27T10:33:09.394Z,978.47
2019-03-27T10:34:09.355Z,978.53
2019-03-27T10:35:09.391Z,978.45
2019-03-27T10:36:09.353Z,978.57
2019-03-27T10:37:09.342Z,978.53
2019-03-27T10:38:09.329Z,978.57
2019-03-27T10:39:09.300Z,978.52
2019-03-27T10:40:09.332Z,978.56
2019-03-27T10:41:09.287Z,978.56
2019-03-27T10:42:09.281Z,978.55
2019-03-27T10:43:09.270Z,978.61
2019-03-27T10:44:09.252Z,978.58
2019-03-27T10:45:09.233Z,978.58
2019-03-27T10:46:09.230Z,978.58
2019-03-27T10:47:09.221Z,978.63
2019-03-27T10:48:09.203Z,978.57
2019-03-27T10:49:09.208Z,978.53
2019-03-27T10:50:17.604Z,978.50
2019-03-27T10:51:10.173Z,978.53
2019-03-27T10:52:09.156Z,978.55
2019-03-27T10:53:09.165Z,978.51
2019-03-27T10:54:09.147Z,978.46
2019-03-27T10:55:09.130Z,978.51
2019-03-27T10:56:09.124Z,978.46
2019-03-27T10:57:09.104Z,978.48
2019-03-27T10:58:09.098Z,978.46
2019-03-27T10:59:09.083Z,978.46
2019-03-27T11:00:09.074Z,978.48
2019-03-27T11:01:09.080Z,978.47
2019-03-27T11:02:09.640Z,978.49
2019-03-27T11:03:09.077Z,978.50
2019-03-27T11:04:09.032Z,978.52
2019-03-27T11:05:09.021Z,978.46
2019-03-27T11:06:09.035Z,978.54
2019-03-27T11:07:09.009Z,978.48
2019-03-27T11:08:11.482Z,978.51
2019-03-27T11:09:08.977Z,978.48
2019-03-27T11:10:09.018Z,978.50
2019-03-27T11:11:08.962Z,978.47
2019-03-27T11:12:08.956Z,978.48
2019-03-27T11:13:08.942Z,978.52
2019-03-27T11:14:08.935Z,978.55
2019-03-27T11:15:08.903Z,978.51
2019-03-27T11:16:08.906Z,978.44
2019-03-27T11:17:08.908Z,978.48
2019-03-27T11:18:08.886Z,978.45
2019-03-27T11:19:08.867Z,978.44
2019-03-27T11:20:08.849Z,978.47
2019-03-27T11:21:08.847Z,978.40
2019-03-27T11:22:08.832Z,978.45
2019-03-27T11:23:08.837Z,978.45
2019-03-27T11:24:08.812Z,978.44
2019-03-27T11:25:08.822Z,978.45
2019-03-27T11:26:08.839Z,978.42
2019-03-27T11:27:08.777Z,978.36
2019-03-27T11:28:08.758Z,978.39
2019-03-27T11:29:08.761Z,978.40
2019-03-27T11:30:08.748Z,978.43
2019-03-27T11:31:08.759Z,978.41
2019-03-27T11:32:08.755Z,978.39
2019-03-27T11:33:08.786Z,978.37
2019-03-27T11:34:08.693Z,978.39
2019-03-27T11:35:08.695Z,978.39
2019-03-27T11:36:08.680Z,978.43
2019-03-27T11:37:08.692Z,978.40
2019-03-27T11:38:08.649Z,978.39
2019-03-27T11:39:08.638Z,978.39
2019-03-27T11:40:08.628Z,978.43
2019-03-27T11:41:11.955Z,978.35
2019-03-27T11:42:08.618Z,978.41
2019-03-27T11:43:08.614Z,978.38
2019-03-27T11:44:08.595Z,978.39
2019-03-27T11:45:08.577Z,978.43
2019-03-27T11:46:08.572Z,978.37
2019-03-27T11:47:08.596Z,978.39
2019-03-27T11:48:08.584Z,978.38
2019-03-27T11:49:08.553Z,978.38
2019-03-27T11:50:08.545Z,978.44
2019-03-27T11:51:08.534Z,978.38
2019-03-27T11:52:08.514Z,978.42
2019-03-27T11:53:08.504Z,978.42
2019-03-27T11:54:08.488Z,978.40
2019-03-27T11:55:08.461Z,978.37
2019-03-27T11:56:09.142Z,978.43
2019-03-27T11:57:08.449Z,978.40
2019-03-27T11:58:08.461Z,978.38
2019-03-27T11:59:08.422Z,978.35
2019-03-27T12:00:08.421Z,978.36
2019-03-27T12:01:08.419Z,978.34
2019-03-27T12:02:08.403Z,978.34
2019-03-27T12:03:08.401Z,978.32
2019-03-27T12:04:08.369Z,978.36
2019-03-27T12:05:08.356Z,978.40
2019-03-27T12:06:08.376Z,978.32
2019-03-27T12:07:08.328Z,978.39
2019-03-27T12:08:08.317Z,978.36
2019-03-27T12:09:08.305Z,978.38
2019-03-27T12:10:08.315Z,978.36
2019-03-27T12:11:08.308Z,978.32
2019-03-27T12:12:08.293Z,978.35
2019-03-27T12:13:08.263Z,978.34
2019-03-27T12:14:08.252Z,978.29
2019-03-27T12:15:08.242Z,978.28
2019-03-27T12:16:08.686Z,978.27
2019-03-27T12:17:08.235Z,978.26
2019-03-27T12:18:08.236Z,978.30
2019-03-27T12:19:08.201Z,978.29
2019-03-27T12:20:08.183Z,978.30
2019-03-27T12:21:08.175Z,978.26
2019-03-27T12:22:08.177Z,978.26
2019-03-27T12:23:08.176Z,978.24
2019-03-27T12:24:08.144Z,978.22
2019-03-27T12:25:08.151Z,978.19
2019-03-27T12:26:08.139Z,978.21
2019-03-27T12:27:08.108Z,978.25
2019-03-27T12:28:08.128Z,978.26